sensor_id;sensor_type;location;lat;lon;timestamp;P1;durP1;ratioP1;P2;durP2;ratioP2
10074;SDS011;5076;42.680;23.288;2022-10-31T00:00:52;3.43;;;2.00;;
10074;SDS011;5076;42.680;23.288;2022-10-31T00:03:18;4.23;;;2.10;;
10074;SDS011;5076;42.680;23.288;2022-10-31T00:05:45;4.77;;;2.20;;
10074;SDS011;5076;42.680;23.288;2022-10-31T00:08:12;5.03;;;2.30;;
10074;SDS011;5076;42.680;23.288;2022-10-31T00:10:41;6.30;;;2.53;;
10074;SDS011;5076;42.680;23.288;2022-10-31T00:13:08;3.43;;;2.70;;
10074;SDS011;5076;42.680;23.288;2022-10-31T00:15:35;2.10;;;1.87;;
10074;SDS011;5076;42.680;23.288;2022-10-31T00:18:02;4.40;;;2.50;;
10074;SDS011;5076;42.680;23.288;2022-10-31T00:20:28;4.53;;;2.53;;
10074;SDS011;5076;42.680;23.288;2022-10-31T00:22:57;4.13;;;2.87;;
10074;SDS011;5076;42.680;23.288;2022-10-31T00:25:23;4.47;;;2.20;;
10074;SDS011;5076;42.680;23.288;2022-10-31T00:27:51;3.93;;;2.30;;
10074;SDS011;5076;42.680;23.288;2022-10-31T00:30:18;3.23;;;2.20;;
10074;SDS011;5076;42.680;23.288;2022-10-31T00:32:44;4.13;;;2.33;;
10074;SDS011;5076;42.680;23.288;2022-10-31T00:35:11;5.10;;;2.80;;
10074;SDS011;5076;42.680;23.288;2022-10-31T00:37:37;4.63;;;2.17;;
10074;SDS011;5076;42.680;23.288;2022-10-31T00:40:04;4.50;;;2.03;;
10074;SDS011;5076;42.680;23.288;2022-10-31T00:42:31;4.10;;;2.53;;
10074;SDS011;5076;42.680;23.288;2022-10-31T00:44:59;2.47;;;2.20;;
10074;SDS011;5076;42.680;23.288;2022-10-31T00:47:25;3.63;;;2.27;;
10074;SDS011;5076;42.680;23.288;2022-10-31T00:49:52;4.90;;;2.33;;
10074;SDS011;5076;42.680;23.288;2022-10-31T00:52:18;3.13;;;2.10;;
10074;SDS011;5076;42.680;23.288;2022-10-31T00:54:45;3.20;;;1.90;;
10074;SDS011;5076;42.680;23.288;2022-10-31T00:57:11;6.07;;;2.53;;
10074;SDS011;5076;42.680;23.288;2022-10-31T00:59:38;3.50;;;2.53;;
10074;SDS011;5076;42.680;23.288;2022-10-31T01:02:06;3.93;;;2.10;;
10074;SDS011;5076;42.680;23.288;2022-10-31T01:04:32;3.60;;;1.90;;
10074;SDS011;5076;42.680;23.288;2022-10-31T01:06:59;3.47;;;2.10;;
10074;SDS011;5076;42.680;23.288;2022-10-31T01:09:25;5.23;;;2.20;;
10074;SDS011;5076;42.680;23.288;2022-10-31T01:11:52;2.73;;;2.10;;
10074;SDS011;5076;42.680;23.288;2022-10-31T01:14:18;2.93;;;2.27;;
10074;SDS011;5076;42.680;23.288;2022-10-31T01:16:45;3.07;;;2.30;;
10074;SDS011;5076;42.680;23.288;2022-10-31T01:19:13;2.97;;;2.10;;
10074;SDS011;5076;42.680;23.288;2022-10-31T01:21:39;4.60;;;2.00;;
10074;SDS011;5076;42.680;23.288;2022-10-31T01:24:06;3.50;;;2.30;;
10074;SDS011;5076;42.680;23.288;2022-10-31T01:26:33;3.73;;;2.23;;
10074;SDS011;5076;42.680;23.288;2022-10-31T01:29:00;4.23;;;2.67;;
10074;SDS011;5076;42.680;23.288;2022-10-31T01:31:27;3.50;;;2.70;;
10074;SDS011;5076;42.680;23.288;2022-10-31T01:33:54;4.30;;;3.03;;
10074;SDS011;5076;42.680;23.288;2022-10-31T01:36:23;5.90;;;2.47;;
10074;SDS011;5076;42.680;23.288;2022-10-31T01:38:50;4.90;;;2.30;;
10074;SDS011;5076;42.680;23.288;2022-10-31T01:41:18;3.73;;;2.73;;
10074;SDS011;5076;42.680;23.288;2022-10-31T01:43:46;3.27;;;2.57;;
10074;SDS011;5076;42.680;23.288;2022-10-31T01:46:13;2.57;;;2.30;;
10074;SDS011;5076;42.680;23.288;2022-10-31T01:48:40;6.07;;;2.40;;
10074;SDS011;5076;42.680;23.288;2022-10-31T01:51:08;4.23;;;2.60;;
10074;SDS011;5076;42.680;23.288;2022-10-31T01:53:36;4.37;;;3.20;;
10074;SDS011;5076;42.680;23.288;2022-10-31T01:56:03;3.90;;;2.40;;
10074;SDS011;5076;42.680;23.288;2022-10-31T01:58:29;6.13;;;3.17;;
10074;SDS011;5076;42.680;23.288;2022-10-31T02:00:57;4.53;;;3.10;;
10074;SDS011;5076;42.680;23.288;2022-10-31T02:03:25;4.00;;;2.90;;
10074;SDS011;5076;42.680;23.288;2022-10-31T02:05:52;3.43;;;2.80;;
10074;SDS011;5076;42.680;23.288;2022-10-31T02:08:20;4.73;;;3.37;;
10074;SDS011;5076;42.680;23.288;2022-10-31T02:10:50;4.87;;;3.30;;
10074;SDS011;5076;42.680;23.288;2022-10-31T02:13:17;5.47;;;3.23;;
10074;SDS011;5076;42.680;23.288;2022-10-31T02:15:44;6.30;;;3.03;;
10074;SDS011;5076;42.680;23.288;2022-10-31T02:18:11;5.30;;;3.57;;
10074;SDS011;5076;42.680;23.288;2022-10-31T02:20:39;7.23;;;3.97;;
10074;SDS011;5076;42.680;23.288;2022-10-31T02:23:20;6.50;;;4.00;;
10074;SDS011;5076;42.680;23.288;2022-10-31T02:26:00;6.43;;;4.00;;
10074;SDS011;5076;42.680;23.288;2022-10-31T02:28:33;5.63;;;3.30;;
10074;SDS011;5076;42.680;23.288;2022-10-31T02:31:05;5.67;;;4.20;;
10074;SDS011;5076;42.680;23.288;2022-10-31T02:33:38;5.40;;;3.73;;
10074;SDS011;5076;42.680;23.288;2022-10-31T02:36:09;5.40;;;3.70;;
10074;SDS011;5076;42.680;23.288;2022-10-31T02:38:38;5.83;;;3.40;;
10074;SDS011;5076;42.680;23.288;2022-10-31T02:41:10;5.00;;;3.50;;
10074;SDS011;5076;42.680;23.288;2022-10-31T02:43:43;6.30;;;3.60;;
10074;SDS011;5076;42.680;23.288;2022-10-31T02:46:14;4.03;;;3.20;;
10074;SDS011;5076;42.680;23.288;2022-10-31T02:48:44;3.37;;;3.00;;
10074;SDS011;5076;42.680;23.288;2022-10-31T02:51:11;5.93;;;3.60;;
10074;SDS011;5076;42.680;23.288;2022-10-31T02:53:38;8.07;;;3.70;;
10074;SDS011;5076;42.680;23.288;2022-10-31T02:56:05;3.90;;;3.23;;
10074;SDS011;5076;42.680;23.288;2022-10-31T02:58:33;6.67;;;3.90;;
10074;SDS011;5076;42.680;23.288;2022-10-31T03:01:09;4.70;;;3.73;;
10074;SDS011;5076;42.680;23.288;2022-10-31T03:03:41;5.63;;;3.33;;
10074;SDS011;5076;42.680;23.288;2022-10-31T03:06:12;6.20;;;3.67;;
10074;SDS011;5076;42.680;23.288;2022-10-31T03:08:43;6.60;;;3.20;;
10074;SDS011;5076;42.680;23.288;2022-10-31T03:11:13;4.77;;;3.37;;
10074;SDS011;5076;42.680;23.288;2022-10-31T03:13:43;4.83;;;3.70;;
10074;SDS011;5076;42.680;23.288;2022-10-31T03:16:13;4.90;;;3.63;;
10074;SDS011;5076;42.680;23.288;2022-10-31T03:18:42;4.90;;;3.50;;
10074;SDS011;5076;42.680;23.288;2022-10-31T03:21:12;4.70;;;3.73;;
10074;SDS011;5076;42.680;23.288;2022-10-31T03:23:40;6.47;;;3.40;;
10074;SDS011;5076;42.680;23.288;2022-10-31T03:26:08;7.73;;;4.13;;
10074;SDS011;5076;42.680;23.288;2022-10-31T03:28:37;5.73;;;3.10;;
10074;SDS011;5076;42.680;23.288;2022-10-31T03:31:04;8.20;;;3.90;;
10074;SDS011;5076;42.680;23.288;2022-10-31T03:33:34;4.50;;;3.37;;
10074;SDS011;5076;42.680;23.288;2022-10-31T03:36:03;4.13;;;3.30;;
10074;SDS011;5076;42.680;23.288;2022-10-31T03:38:31;6.37;;;3.70;;
10074;SDS011;5076;42.680;23.288;2022-10-31T03:40:58;4.80;;;3.30;;
10074;SDS011;5076;42.680;23.288;2022-10-31T03:43:27;6.17;;;3.93;;
10074;SDS011;5076;42.680;23.288;2022-10-31T03:45:55;6.47;;;3.90;;
10074;SDS011;5076;42.680;23.288;2022-10-31T03:48:22;5.10;;;3.57;;
10074;SDS011;5076;42.680;23.288;2022-10-31T03:50:50;4.13;;;3.20;;
10074;SDS011;5076;42.680;23.288;2022-10-31T03:53:20;5.23;;;3.20;;
10074;SDS011;5076;42.680;23.288;2022-10-31T03:55:49;5.20;;;3.50;;
10074;SDS011;5076;42.680;23.288;2022-10-31T03:58:18;5.93;;;3.63;;
10074;SDS011;5076;42.680;23.288;2022-10-31T04:00:46;5.90;;;4.03;;
10074;SDS011;5076;42.680;23.288;2022-10-31T04:03:17;6.47;;;4.53;;
10074;SDS011;5076;42.680;23.288;2022-10-31T04:05:45;8.47;;;4.63;;
10074;SDS011;5076;42.680;23.288;2022-10-31T04:08:13;7.03;;;4.03;;
10074;SDS011;5076;42.680;23.288;2022-10-31T04:10:42;6.23;;;4.17;;
10074;SDS011;5076;42.680;23.288;2022-10-31T04:13:12;6.10;;;4.40;;
10074;SDS011;5076;42.680;23.288;2022-10-31T04:15:39;6.17;;;4.60;;
10074;SDS011;5076;42.680;23.288;2022-10-31T04:18:07;5.97;;;4.37;;
10074;SDS011;5076;42.680;23.288;2022-10-31T04:20:34;9.23;;;5.20;;
10074;SDS011;5076;42.680;23.288;2022-10-31T04:23:01;5.90;;;3.93;;
10074;SDS011;5076;42.680;23.288;2022-10-31T04:25:28;7.63;;;4.80;;
10074;SDS011;5076;42.680;23.288;2022-10-31T04:27:56;7.80;;;4.17;;
10074;SDS011;5076;42.680;23.288;2022-10-31T04:30:23;6.50;;;4.47;;
10074;SDS011;5076;42.680;23.288;2022-10-31T04:32:49;8.23;;;4.70;;
10074;SDS011;5076;42.680;23.288;2022-10-31T04:35:16;8.50;;;4.43;;
10074;SDS011;5076;42.680;23.288;2022-10-31T04:37:42;6.33;;;4.73;;
10074;SDS011;5076;42.680;23.288;2022-10-31T04:40:09;7.23;;;5.40;;
10074;SDS011;5076;42.680;23.288;2022-10-31T04:42:36;7.93;;;4.60;;
10074;SDS011;5076;42.680;23.288;2022-10-31T04:45:04;6.77;;;5.43;;
10074;SDS011;5076;42.680;23.288;2022-10-31T04:47:31;9.10;;;5.80;;
10074;SDS011;5076;42.680;23.288;2022-10-31T04:49:58;8.53;;;5.97;;
10074;SDS011;5076;42.680;23.288;2022-10-31T04:52:24;11.83;;;6.60;;
10074;SDS011;5076;42.680;23.288;2022-10-31T04:54:51;9.03;;;5.70;;
10074;SDS011;5076;42.680;23.288;2022-10-31T04:57:17;9.53;;;6.77;;
10074;SDS011;5076;42.680;23.288;2022-10-31T04:59:44;8.03;;;6.20;;
10074;SDS011;5076;42.680;23.288;2022-10-31T05:02:12;11.73;;;5.57;;
10074;SDS011;5076;42.680;23.288;2022-10-31T05:04:38;9.20;;;6.60;;
10074;SDS011;5076;42.680;23.288;2022-10-31T05:07:05;12.40;;;7.47;;
10074;SDS011;5076;42.680;23.288;2022-10-31T05:09:32;8.03;;;5.30;;
10074;SDS011;5076;42.680;23.288;2022-10-31T05:11:58;12.43;;;6.87;;
10074;SDS011;5076;42.680;23.288;2022-10-31T05:14:25;13.33;;;7.13;;
10074;SDS011;5076;42.680;23.288;2022-10-31T05:16:51;11.33;;;6.57;;
10074;SDS011;5076;42.680;23.288;2022-10-31T05:19:19;8.77;;;5.83;;
10074;SDS011;5076;42.680;23.288;2022-10-31T05:21:46;10.27;;;6.80;;
10074;SDS011;5076;42.680;23.288;2022-10-31T05:24:12;17.27;;;7.53;;
10074;SDS011;5076;42.680;23.288;2022-10-31T05:26:39;11.67;;;7.43;;
10074;SDS011;5076;42.680;23.288;2022-10-31T05:29:05;13.77;;;8.03;;
10074;SDS011;5076;42.680;23.288;2022-10-31T05:31:32;19.00;;;7.83;;
10074;SDS011;5076;42.680;23.288;2022-10-31T05:33:59;18.27;;;8.70;;
10074;SDS011;5076;42.680;23.288;2022-10-31T05:36:26;14.80;;;8.87;;
10074;SDS011;5076;42.680;23.288;2022-10-31T05:38:53;19.43;;;8.57;;
10074;SDS011;5076;42.680;23.288;2022-10-31T05:41:19;10.53;;;5.97;;
10074;SDS011;5076;42.680;23.288;2022-10-31T05:43:46;10.50;;;5.97;;
10074;SDS011;5076;42.680;23.288;2022-10-31T05:46:13;11.63;;;6.63;;
10074;SDS011;5076;42.680;23.288;2022-10-31T05:48:39;10.97;;;6.90;;
10074;SDS011;5076;42.680;23.288;2022-10-31T05:51:06;11.43;;;6.47;;
10074;SDS011;5076;42.680;23.288;2022-10-31T05:53:33;8.90;;;6.13;;
10074;SDS011;5076;42.680;23.288;2022-10-31T05:56:00;9.50;;;6.37;;
10074;SDS011;5076;42.680;23.288;2022-10-31T05:58:26;9.83;;;6.43;;
10074;SDS011;5076;42.680;23.288;2022-10-31T06:00:53;8.73;;;6.33;;
10074;SDS011;5076;42.680;23.288;2022-10-31T06:03:20;11.93;;;6.57;;
10074;SDS011;5076;42.680;23.288;2022-10-31T06:05:46;12.97;;;6.53;;
10074;SDS011;5076;42.680;23.288;2022-10-31T06:08:13;12.83;;;6.83;;
10074;SDS011;5076;42.680;23.288;2022-10-31T06:10:42;11.27;;;6.70;;
10074;SDS011;5076;42.680;23.288;2022-10-31T06:13:09;12.03;;;7.07;;
10074;SDS011;5076;42.680;23.288;2022-10-31T06:15:35;10.57;;;6.40;;
10074;SDS011;5076;42.680;23.288;2022-10-31T06:18:02;11.33;;;7.23;;
10074;SDS011;5076;42.680;23.288;2022-10-31T06:20:29;11.37;;;7.50;;
10074;SDS011;5076;42.680;23.288;2022-10-31T06:22:55;11.87;;;7.33;;
10074;SDS011;5076;42.680;23.288;2022-10-31T06:25:22;14.07;;;7.67;;
10074;SDS011;5076;42.680;23.288;2022-10-31T06:27:50;11.37;;;7.17;;
10074;SDS011;5076;42.680;23.288;2022-10-31T06:30:17;11.20;;;7.23;;
10074;SDS011;5076;42.680;23.288;2022-10-31T06:32:43;10.63;;;7.47;;
10074;SDS011;5076;42.680;23.288;2022-10-31T06:35:10;10.13;;;7.10;;
10074;SDS011;5076;42.680;23.288;2022-10-31T06:37:39;11.00;;;7.60;;
10074;SDS011;5076;42.680;23.288;2022-10-31T06:40:15;12.17;;;7.43;;
10074;SDS011;5076;42.680;23.288;2022-10-31T06:42:41;12.17;;;7.80;;
10074;SDS011;5076;42.680;23.288;2022-10-31T06:45:09;12.53;;;8.57;;
10074;SDS011;5076;42.680;23.288;2022-10-31T06:47:36;11.03;;;8.13;;
10074;SDS011;5076;42.680;23.288;2022-10-31T06:50:02;16.07;;;8.73;;
10074;SDS011;5076;42.680;23.288;2022-10-31T06:52:29;12.60;;;8.80;;
10074;SDS011;5076;42.680;23.288;2022-10-31T06:54:55;11.00;;;8.17;;
10074;SDS011;5076;42.680;23.288;2022-10-31T06:57:22;13.07;;;8.43;;
10074;SDS011;5076;42.680;23.288;2022-10-31T06:59:48;15.97;;;9.60;;
10074;SDS011;5076;42.680;23.288;2022-10-31T07:02:16;10.47;;;8.10;;
10074;SDS011;5076;42.680;23.288;2022-10-31T07:04:43;12.30;;;8.57;;
10074;SDS011;5076;42.680;23.288;2022-10-31T07:07:09;17.17;;;9.37;;
10074;SDS011;5076;42.680;23.288;2022-10-31T07:09:36;10.73;;;8.33;;
10074;SDS011;5076;42.680;23.288;2022-10-31T07:12:03;9.27;;;8.30;;
10074;SDS011;5076;42.680;23.288;2022-10-31T07:14:29;15.30;;;9.17;;
10074;SDS011;5076;42.680;23.288;2022-10-31T07:16:56;14.13;;;8.90;;
10074;SDS011;5076;42.680;23.288;2022-10-31T07:19:24;13.40;;;8.97;;
10074;SDS011;5076;42.680;23.288;2022-10-31T07:21:51;10.30;;;8.47;;
10074;SDS011;5076;42.680;23.288;2022-10-31T07:24:17;12.93;;;8.60;;
10074;SDS011;5076;42.680;23.288;2022-10-31T07:26:44;13.43;;;9.37;;
10074;SDS011;5076;42.680;23.288;2022-10-31T07:29:14;11.27;;;9.20;;
10074;SDS011;5076;42.680;23.288;2022-10-31T07:31:40;11.70;;;9.70;;
10074;SDS011;5076;42.680;23.288;2022-10-31T07:34:09;13.27;;;9.27;;
10074;SDS011;5076;42.680;23.288;2022-10-31T07:36:37;14.23;;;9.37;;
10074;SDS011;5076;42.680;23.288;2022-10-31T07:39:03;13.27;;;8.97;;
10074;SDS011;5076;42.680;23.288;2022-10-31T07:41:30;12.53;;;9.30;;
10074;SDS011;5076;42.680;23.288;2022-10-31T07:43:56;11.83;;;9.33;;
10074;SDS011;5076;42.680;23.288;2022-10-31T07:46:23;12.80;;;9.90;;
10074;SDS011;5076;42.680;23.288;2022-10-31T07:48:49;11.53;;;8.63;;
10074;SDS011;5076;42.680;23.288;2022-10-31T07:51:16;14.77;;;9.93;;
10074;SDS011;5076;42.680;23.288;2022-10-31T07:53:44;10.70;;;9.20;;
10074;SDS011;5076;42.680;23.288;2022-10-31T07:56:10;11.57;;;9.50;;
10074;SDS011;5076;42.680;23.288;2022-10-31T07:58:37;12.97;;;9.23;;
10074;SDS011;5076;42.680;23.288;2022-10-31T08:01:04;12.27;;;9.33;;
10074;SDS011;5076;42.680;23.288;2022-10-31T08:03:30;14.37;;;9.93;;
10074;SDS011;5076;42.680;23.288;2022-10-31T08:05:57;14.63;;;10.13;;
10074;SDS011;5076;42.680;23.288;2022-10-31T08:08:23;13.17;;;9.40;;
10074;SDS011;5076;42.680;23.288;2022-10-31T08:10:54;12.63;;;9.27;;
10074;SDS011;5076;42.680;23.288;2022-10-31T08:13:21;10.23;;;8.47;;
10074;SDS011;5076;42.680;23.288;2022-10-31T08:15:47;17.37;;;9.93;;
10074;SDS011;5076;42.680;23.288;2022-10-31T08:18:15;10.90;;;8.20;;
10074;SDS011;5076;42.680;23.288;2022-10-31T08:20:42;10.20;;;8.53;;
10074;SDS011;5076;42.680;23.288;2022-10-31T08:23:10;13.57;;;8.80;;
10074;SDS011;5076;42.680;23.288;2022-10-31T08:25:36;11.03;;;8.50;;
10074;SDS011;5076;42.680;23.288;2022-10-31T08:28:05;13.63;;;9.13;;
10074;SDS011;5076;42.680;23.288;2022-10-31T08:30:32;15.37;;;9.10;;
10074;SDS011;5076;42.680;23.288;2022-10-31T08:33:00;12.77;;;8.87;;
10074;SDS011;5076;42.680;23.288;2022-10-31T08:35:27;17.03;;;10.17;;
10074;SDS011;5076;42.680;23.288;2022-10-31T08:37:54;21.97;;;15.90;;
10074;SDS011;5076;42.680;23.288;2022-10-31T08:40:20;18.63;;;14.33;;
10074;SDS011;5076;42.680;23.288;2022-10-31T08:42:47;12.10;;;9.50;;
10074;SDS011;5076;42.680;23.288;2022-10-31T08:45:15;13.53;;;9.37;;
10074;SDS011;5076;42.680;23.288;2022-10-31T08:47:41;14.03;;;8.93;;
10074;SDS011;5076;42.680;23.288;2022-10-31T08:50:08;15.17;;;9.73;;
10074;SDS011;5076;42.680;23.288;2022-10-31T08:52:35;11.73;;;9.23;;
10074;SDS011;5076;42.680;23.288;2022-10-31T08:55:01;10.70;;;8.80;;
10074;SDS011;5076;42.680;23.288;2022-10-31T08:57:28;14.20;;;8.57;;
10074;SDS011;5076;42.680;23.288;2022-10-31T08:59:54;13.40;;;8.07;;
10074;SDS011;5076;42.680;23.288;2022-10-31T09:02:22;11.67;;;8.27;;
10074;SDS011;5076;42.680;23.288;2022-10-31T09:04:48;8.53;;;6.77;;
10074;SDS011;5076;42.680;23.288;2022-10-31T09:07:15;11.27;;;8.23;;
10074;SDS011;5076;42.680;23.288;2022-10-31T09:09:41;11.90;;;6.43;;
10074;SDS011;5076;42.680;23.288;2022-10-31T09:12:08;8.50;;;6.03;;
10074;SDS011;5076;42.680;23.288;2022-10-31T09:14:34;9.73;;;7.67;;
10074;SDS011;5076;42.680;23.288;2022-10-31T09:17:01;10.33;;;8.13;;
10074;SDS011;5076;42.680;23.288;2022-10-31T09:19:29;10.53;;;7.57;;
10074;SDS011;5076;42.680;23.288;2022-10-31T09:21:55;13.27;;;7.47;;
10074;SDS011;5076;42.680;23.288;2022-10-31T09:24:22;7.83;;;6.20;;
10074;SDS011;5076;42.680;23.288;2022-10-31T09:26:48;8.30;;;5.90;;
10074;SDS011;5076;42.680;23.288;2022-10-31T09:29:15;7.60;;;5.37;;
10074;SDS011;5076;42.680;23.288;2022-10-31T09:31:42;10.43;;;5.60;;
10074;SDS011;5076;42.680;23.288;2022-10-31T09:34:08;7.83;;;5.60;;
10074;SDS011;5076;42.680;23.288;2022-10-31T09:36:36;8.97;;;6.03;;
10074;SDS011;5076;42.680;23.288;2022-10-31T09:39:03;9.60;;;5.83;;
10074;SDS011;5076;42.680;23.288;2022-10-31T09:41:32;10.27;;;5.33;;
10074;SDS011;5076;42.680;23.288;2022-10-31T09:44:02;6.43;;;5.17;;
10074;SDS011;5076;42.680;23.288;2022-10-31T09:46:34;9.37;;;5.17;;
10074;SDS011;5076;42.680;23.288;2022-10-31T09:49:21;8.53;;;5.60;;
10074;SDS011;5076;42.680;23.288;2022-10-31T09:51:53;5.97;;;4.90;;
10074;SDS011;5076;42.680;23.288;2022-10-31T09:54:21;7.27;;;5.10;;
10074;SDS011;5076;42.680;23.288;2022-10-31T09:56:52;9.03;;;5.13;;
10074;SDS011;5076;42.680;23.288;2022-10-31T09:59:20;8.27;;;4.87;;
10074;SDS011;5076;42.680;23.288;2022-10-31T10:01:50;6.10;;;4.30;;
10074;SDS011;5076;42.680;23.288;2022-10-31T10:04:27;6.40;;;4.07;;
10074;SDS011;5076;42.680;23.288;2022-10-31T10:06:57;7.10;;;4.00;;
10074;SDS011;5076;42.680;23.288;2022-10-31T10:09:26;6.33;;;4.00;;
10074;SDS011;5076;42.680;23.288;2022-10-31T10:11:55;8.70;;;4.93;;
10074;SDS011;5076;42.680;23.288;2022-10-31T10:14:31;6.80;;;3.47;;
10074;SDS011;5076;42.680;23.288;2022-10-31T10:17:04;6.67;;;3.43;;
10074;SDS011;5076;42.680;23.288;2022-10-31T10:19:42;5.40;;;3.57;;
10074;SDS011;5076;42.680;23.288;2022-10-31T10:22:12;9.73;;;3.57;;
10074;SDS011;5076;42.680;23.288;2022-10-31T10:24:48;5.70;;;3.07;;
10074;SDS011;5076;42.680;23.288;2022-10-31T10:27:19;5.10;;;3.10;;
10074;SDS011;5076;42.680;23.288;2022-10-31T10:29:50;3.50;;;2.33;;
10074;SDS011;5076;42.680;23.288;2022-10-31T10:32:19;3.60;;;2.70;;
10074;SDS011;5076;42.680;23.288;2022-10-31T10:34:49;4.83;;;2.83;;
10074;SDS011;5076;42.680;23.288;2022-10-31T10:37:21;4.27;;;2.30;;
10074;SDS011;5076;42.680;23.288;2022-10-31T10:39:50;4.27;;;3.50;;
10074;SDS011;5076;42.680;23.288;2022-10-31T10:42:17;7.80;;;3.40;;
10074;SDS011;5076;42.680;23.288;2022-10-31T10:45:07;5.63;;;2.87;;
10074;SDS011;5076;42.680;23.288;2022-10-31T10:47:57;4.63;;;2.70;;
10074;SDS011;5076;42.680;23.288;2022-10-31T10:50:30;5.60;;;2.53;;
10074;SDS011;5076;42.680;23.288;2022-10-31T10:53:05;3.03;;;2.50;;
10074;SDS011;5076;42.680;23.288;2022-10-31T10:55:35;6.53;;;2.70;;
10074;SDS011;5076;42.680;23.288;2022-10-31T10:58:03;5.73;;;2.90;;
10074;SDS011;5076;42.680;23.288;2022-10-31T11:00:34;6.83;;;2.70;;
10074;SDS011;5076;42.680;23.288;2022-10-31T11:03:01;7.77;;;3.47;;
10074;SDS011;5076;42.680;23.288;2022-10-31T11:05:30;5.73;;;3.27;;
10074;SDS011;5076;42.680;23.288;2022-10-31T11:07:59;5.17;;;2.70;;
10074;SDS011;5076;42.680;23.288;2022-10-31T11:10:27;4.37;;;2.33;;
10074;SDS011;5076;42.680;23.288;2022-10-31T11:12:58;7.10;;;2.50;;
10074;SDS011;5076;42.680;23.288;2022-10-31T11:15:26;4.57;;;2.57;;
10074;SDS011;5076;42.680;23.288;2022-10-31T11:17:54;4.90;;;3.17;;
10074;SDS011;5076;42.680;23.288;2022-10-31T11:20:25;7.83;;;3.37;;
10074;SDS011;5076;42.680;23.288;2022-10-31T11:23:00;5.57;;;2.40;;
10074;SDS011;5076;42.680;23.288;2022-10-31T11:25:28;6.40;;;2.90;;
10074;SDS011;5076;42.680;23.288;2022-10-31T11:28:00;4.77;;;3.13;;
10074;SDS011;5076;42.680;23.288;2022-10-31T11:30:27;2.83;;;2.10;;
10074;SDS011;5076;42.680;23.288;2022-10-31T11:32:54;7.17;;;3.60;;
10074;SDS011;5076;42.680;23.288;2022-10-31T11:35:22;3.47;;;2.63;;
10074;SDS011;5076;42.680;23.288;2022-10-31T11:37:50;4.20;;;2.03;;
10074;SDS011;5076;42.680;23.288;2022-10-31T11:40:18;6.33;;;2.90;;
10074;SDS011;5076;42.680;23.288;2022-10-31T11:42:47;5.40;;;3.53;;
10074;SDS011;5076;42.680;23.288;2022-10-31T11:45:16;6.97;;;3.87;;
10074;SDS011;5076;42.680;23.288;2022-10-31T11:47:44;6.37;;;3.57;;
10074;SDS011;5076;42.680;23.288;2022-10-31T11:50:11;5.60;;;4.10;;
10074;SDS011;5076;42.680;23.288;2022-10-31T11:52:41;13.30;;;10.03;;
10074;SDS011;5076;42.680;23.288;2022-10-31T11:55:14;6.30;;;3.30;;
10074;SDS011;5076;42.680;23.288;2022-10-31T11:57:42;5.63;;;3.20;;
10074;SDS011;5076;42.680;23.288;2022-10-31T12:00:19;8.73;;;3.17;;
10074;SDS011;5076;42.680;23.288;2022-10-31T12:02:46;7.50;;;2.70;;
10074;SDS011;5076;42.680;23.288;2022-10-31T12:05:17;5.00;;;2.40;;
10074;SDS011;5076;42.680;23.288;2022-10-31T12:07:45;2.93;;;2.37;;
10074;SDS011;5076;42.680;23.288;2022-10-31T12:10:12;6.20;;;2.47;;
10074;SDS011;5076;42.680;23.288;2022-10-31T12:12:41;4.57;;;2.67;;
10074;SDS011;5076;42.680;23.288;2022-10-31T12:15:25;6.43;;;2.80;;
10074;SDS011;5076;42.680;23.288;2022-10-31T12:17:55;5.20;;;2.67;;
10074;SDS011;5076;42.680;23.288;2022-10-31T12:20:26;3.70;;;2.47;;
10074;SDS011;5076;42.680;23.288;2022-10-31T12:22:59;5.10;;;2.80;;
10074;SDS011;5076;42.680;23.288;2022-10-31T12:25:33;5.23;;;2.40;;
10074;SDS011;5076;42.680;23.288;2022-10-31T12:28:16;5.10;;;2.70;;
10074;SDS011;5076;42.680;23.288;2022-10-31T12:30:52;5.70;;;2.90;;
10074;SDS011;5076;42.680;23.288;2022-10-31T12:33:25;6.30;;;2.60;;
10074;SDS011;5076;42.680;23.288;2022-10-31T12:35:58;3.67;;;2.30;;
10074;SDS011;5076;42.680;23.288;2022-10-31T12:38:30;8.27;;;3.67;;
10074;SDS011;5076;42.680;23.288;2022-10-31T12:41:03;4.33;;;3.03;;
10074;SDS011;5076;42.680;23.288;2022-10-31T12:43:36;5.27;;;2.70;;
10074;SDS011;5076;42.680;23.288;2022-10-31T12:46:07;5.20;;;2.93;;
10074;SDS011;5076;42.680;23.288;2022-10-31T12:48:40;5.47;;;2.93;;
10074;SDS011;5076;42.680;23.288;2022-10-31T12:51:11;7.00;;;3.00;;
10074;SDS011;5076;42.680;23.288;2022-10-31T12:53:45;5.80;;;2.90;;
10074;SDS011;5076;42.680;23.288;2022-10-31T12:56:20;5.63;;;3.23;;
10074;SDS011;5076;42.680;23.288;2022-10-31T12:58:49;5.83;;;2.90;;
10074;SDS011;5076;42.680;23.288;2022-10-31T13:01:20;7.53;;;2.73;;
10074;SDS011;5076;42.680;23.288;2022-10-31T13:03:50;4.60;;;2.70;;
10074;SDS011;5076;42.680;23.288;2022-10-31T13:06:19;3.97;;;2.87;;
10074;SDS011;5076;42.680;23.288;2022-10-31T13:08:47;4.87;;;2.87;;
10074;SDS011;5076;42.680;23.288;2022-10-31T13:11:16;6.07;;;3.10;;
10074;SDS011;5076;42.680;23.288;2022-10-31T13:13:46;5.17;;;3.03;;
10074;SDS011;5076;42.680;23.288;2022-10-31T13:16:16;3.77;;;2.57;;
10074;SDS011;5076;42.680;23.288;2022-10-31T13:18:46;5.67;;;2.90;;
10074;SDS011;5076;42.680;23.288;2022-10-31T13:21:16;5.20;;;3.00;;
10074;SDS011;5076;42.680;23.288;2022-10-31T13:23:47;3.50;;;2.70;;
10074;SDS011;5076;42.680;23.288;2022-10-31T13:26:16;6.40;;;3.50;;
10074;SDS011;5076;42.680;23.288;2022-10-31T13:28:46;4.80;;;3.30;;
10074;SDS011;5076;42.680;23.288;2022-10-31T13:31:13;5.40;;;3.17;;
10074;SDS011;5076;42.680;23.288;2022-10-31T13:33:40;7.13;;;3.50;;
10074;SDS011;5076;42.680;23.288;2022-10-31T13:36:14;8.47;;;3.80;;
10074;SDS011;5076;42.680;23.288;2022-10-31T13:38:46;10.10;;;4.40;;
10074;SDS011;5076;42.680;23.288;2022-10-31T13:41:17;8.53;;;4.20;;
10074;SDS011;5076;42.680;23.288;2022-10-31T13:43:50;6.57;;;3.37;;
10074;SDS011;5076;42.680;23.288;2022-10-31T13:46:22;5.43;;;3.27;;
10074;SDS011;5076;42.680;23.288;2022-10-31T13:48:49;6.13;;;3.40;;
10074;SDS011;5076;42.680;23.288;2022-10-31T13:51:23;5.17;;;2.90;;
10074;SDS011;5076;42.680;23.288;2022-10-31T13:53:56;9.53;;;5.67;;
10074;SDS011;5076;42.680;23.288;2022-10-31T13:56:23;11.87;;;4.60;;
10074;SDS011;5076;42.680;23.288;2022-10-31T13:58:56;10.83;;;3.70;;
10074;SDS011;5076;42.680;23.288;2022-10-31T14:01:23;6.93;;;3.23;;
10074;SDS011;5076;42.680;23.288;2022-10-31T14:03:55;10.17;;;3.43;;
10074;SDS011;5076;42.680;23.288;2022-10-31T14:06:24;7.27;;;3.47;;
10074;SDS011;5076;42.680;23.288;2022-10-31T14:09:00;3.93;;;2.80;;
10074;SDS011;5076;42.680;23.288;2022-10-31T14:11:27;11.27;;;4.13;;
10074;SDS011;5076;42.680;23.288;2022-10-31T14:13:54;10.43;;;3.70;;
10074;SDS011;5076;42.680;23.288;2022-10-31T14:16:23;6.83;;;3.17;;
10074;SDS011;5076;42.680;23.288;2022-10-31T14:18:51;5.60;;;2.90;;
10074;SDS011;5076;42.680;23.288;2022-10-31T14:21:28;5.47;;;2.80;;
10074;SDS011;5076;42.680;23.288;2022-10-31T14:23:55;5.20;;;2.60;;
10074;SDS011;5076;42.680;23.288;2022-10-31T14:26:32;4.47;;;2.67;;
10074;SDS011;5076;42.680;23.288;2022-10-31T14:29:00;6.93;;;3.33;;
10074;SDS011;5076;42.680;23.288;2022-10-31T14:31:31;4.87;;;2.30;;
10074;SDS011;5076;42.680;23.288;2022-10-31T14:34:00;4.97;;;2.70;;
10074;SDS011;5076;42.680;23.288;2022-10-31T14:36:33;7.60;;;3.23;;
10074;SDS011;5076;42.680;23.288;2022-10-31T14:39:04;9.27;;;3.93;;
10074;SDS011;5076;42.680;23.288;2022-10-31T14:47:08;14.83;;;4.20;;
10074;SDS011;5076;42.680;23.288;2022-10-31T14:49:43;11.10;;;5.33;;
10074;SDS011;5076;42.680;23.288;2022-10-31T14:52:14;19.13;;;5.40;;
10074;SDS011;5076;42.680;23.288;2022-10-31T14:54:44;11.90;;;4.13;;
10074;SDS011;5076;42.680;23.288;2022-10-31T14:57:13;15.07;;;5.20;;